createdAt,value
2022-08-06T00:02:29.343Z,25.47
2022-08-06T00:05:01.279Z,25.45
2022-08-06T00:07:45.183Z,25.41
2022-08-06T00:10:17.764Z,25.39
2022-08-06T00:12:48.091Z,25.41
2022-08-06T00:15:20.060Z,25.38
2022-08-06T00:18:07.859Z,25.40
2022-08-06T00:20:42.042Z,25.28
2022-08-06T00:23:12.526Z,25.43
2022-08-06T00:25:52.199Z,25.31
2022-08-06T00:28:31.699Z,25.28
2022-08-06T00:31:11.567Z,25.18
2022-08-06T00:33:50.241Z,25.10
2022-08-06T00:36:29.359Z,25.13
2022-08-06T00:39:06.133Z,25.10
2022-08-06T00:41:42.118Z,25.10
2022-08-06T00:44:14.774Z,25.03
2022-08-06T00:46:43.148Z,24.95
2022-08-06T00:49:12.358Z,25.00
2022-08-06T00:51:50.236Z,24.97
2022-08-06T00:54:28.528Z,25.08
2022-08-06T00:57:07.973Z,24.98
2022-08-06T00:59:37.716Z,25.11
2022-08-06T01:02:09.675Z,25.05
2022-08-06T01:04:38.165Z,24.98
2022-08-06T01:07:09.057Z,25.01
2022-08-06T01:09:45.991Z,25.09
2022-08-06T01:12:33.566Z,25.08
2022-08-06T01:15:13.838Z,25.06
2022-08-06T01:17:56.222Z,25.06
2022-08-06T01:21:58.360Z,24.96
2022-08-06T01:24:06.539Z,24.99
2022-08-06T01:27:12.553Z,24.99
2022-08-06T01:29:47.445Z,24.92
2022-08-06T01:32:32.781Z,25.02
2022-08-06T01:35:05.544Z,24.96
2022-08-06T01:37:44.331Z,24.85
2022-08-06T01:40:24.563Z,24.69
2022-08-06T01:42:56.365Z,24.59
2022-08-06T01:45:32.672Z,24.48
2022-08-06T01:48:28.532Z,24.36
2022-08-06T01:51:01.679Z,24.32
2022-08-06T01:54:05.672Z,24.25
2022-08-06T01:56:55.830Z,24.15
2022-08-06T01:59:21.392Z,24.17
2022-08-06T02:01:56.235Z,24.11
2022-08-06T02:04:30.935Z,24.00
2022-08-06T02:07:00.588Z,23.92
2022-08-06T02:09:33.927Z,23.97
2022-08-06T02:12:10.660Z,24.04
2022-08-06T02:14:49.602Z,24.00
2022-08-06T02:17:26.525Z,24.04
2022-08-06T02:20:18.534Z,24.01
2022-08-06T02:22:48.342Z,24.05
2022-08-06T02:25:22.519Z,23.99
2022-08-06T02:28:00.861Z,23.96
2022-08-06T02:30:37.017Z,24.00
2022-08-06T02:33:08.521Z,23.92
2022-08-06T02:35:43.011Z,23.86
2022-08-06T02:38:18.235Z,23.80
2022-08-06T02:41:02.971Z,23.79
2022-08-06T02:43:40.407Z,23.70
2022-08-06T02:46:25.411Z,23.71
2022-08-06T02:49:04.625Z,23.82
2022-08-06T02:52:12.579Z,23.65
2022-08-06T02:54:46.508Z,23.64
2022-08-06T02:57:22.143Z,23.61
2022-08-06T02:59:55.590Z,23.54
2022-08-06T03:02:27.798Z,23.51
2022-08-06T03:04:58.996Z,23.46
2022-08-06T03:07:29.167Z,23.42
2022-08-06T03:10:00.495Z,23.29
2022-08-06T03:12:30.280Z,23.17
2022-08-06T03:15:05.751Z,23.09
2022-08-06T03:17:37.968Z,23.05
2022-08-06T03:20:08.441Z,22.99
2022-08-06T03:22:43.951Z,22.94
2022-08-06T03:25:15.025Z,22.83
2022-08-06T03:27:45.613Z,22.74
2022-08-06T03:30:32.264Z,22.71
2022-08-06T03:33:06.946Z,22.70
2022-08-06T03:35:50.702Z,22.65
2022-08-06T03:38:19.986Z,22.57
2022-08-06T03:40:49.575Z,22.58
2022-08-06T03:43:27.419Z,22.60
2022-08-06T03:46:02.137Z,22.62
2022-08-06T03:48:36.055Z,22.59
2022-08-06T03:51:12.542Z,22.54
2022-08-06T03:53:46.927Z,22.66
2022-08-06T03:56:29.798Z,22.71
2022-08-06T03:59:05.088Z,22.79
2022-08-06T04:01:43.457Z,22.80
2022-08-06T04:04:26.714Z,22.82
2022-08-06T04:06:58.196Z,22.77
2022-08-06T04:09:57.416Z,22.85
2022-08-06T04:12:42.891Z,22.97
2022-08-06T04:15:08.345Z,23.03
2022-08-06T04:17:40.766Z,23.01
2022-08-06T04:20:14.707Z,23.08
2022-08-06T04:22:59.379Z,23.08
2022-08-06T04:25:37.096Z,23.13
2022-08-06T04:28:07.314Z,23.07
2022-08-06T04:30:39.632Z,23.12
2022-08-06T04:33:17.492Z,23.12
2022-08-06T04:36:04.706Z,23.19
2022-08-06T04:38:35.605Z,23.21
2022-08-06T04:41:15.876Z,23.16
2022-08-06T04:43:52.140Z,23.21
2022-08-06T04:46:22.343Z,23.29
2022-08-06T04:48:56.637Z,23.25
2022-08-06T04:52:33.884Z,23.25
2022-08-06T04:54:12.951Z,23.31
2022-08-06T04:56:48.653Z,23.31
2022-08-06T04:59:19.445Z,23.39
2022-08-06T05:01:57.132Z,23.43
2022-08-06T05:04:32.298Z,23.51
2022-08-06T05:07:22.754Z,23.59
2022-08-06T05:09:54.060Z,23.74
2022-08-06T05:12:29.286Z,23.91
2022-08-06T05:15:09.398Z,24.08
2022-08-06T05:17:48.642Z,24.13
2022-08-06T05:20:27.835Z,24.27
2022-08-06T05:23:19.834Z,24.33
2022-08-06T05:25:53.960Z,24.40
2022-08-06T05:28:27.777Z,24.37
2022-08-06T05:30:56.592Z,24.52
2022-08-06T05:33:32.305Z,24.58
2022-08-06T05:36:07.767Z,24.60
2022-08-06T05:38:58.880Z,24.60
2022-08-06T05:41:33.369Z,24.67
2022-08-06T05:44:05.428Z,24.65
2022-08-06T05:46:47.257Z,24.75
2022-08-06T05:49:55.185Z,24.75
2022-08-06T05:52:18.753Z,24.79
2022-08-06T05:54:49.439Z,24.90
2022-08-06T05:57:40.670Z,24.91
2022-08-06T06:00:42.041Z,25.00
2022-08-06T06:03:05.479Z,25.08
2022-08-06T06:06:04.089Z,25.14
2022-08-06T06:08:37.575Z,25.19
2022-08-06T06:11:10.402Z,25.37
2022-08-06T06:13:59.069Z,25.44
2022-08-06T06:17:10.498Z,25.65
2022-08-06T06:19:51.856Z,25.76
2022-08-06T06:22:35.885Z,25.92
2022-08-06T06:25:06.021Z,26.10
2022-08-06T06:27:59.210Z,26.31
2022-08-06T06:31:02.364Z,26.53
2022-08-06T06:33:51.452Z,26.72
2022-08-06T06:36:31.936Z,26.93
2022-08-06T06:39:16.617Z,27.03
2022-08-06T06:41:53.347Z,27.21
2022-08-06T06:45:03.123Z,27.34
2022-08-06T06:47:37.176Z,27.47
2022-08-06T06:50:19.511Z,27.49
2022-08-06T06:52:51.535Z,27.66
2022-08-06T06:55:56.073Z,27.84
2022-08-06T06:58:37.010Z,27.96
2022-08-06T07:01:12.007Z,28.04
2022-08-06T07:03:56.420Z,28.13
2022-08-06T07:06:30.712Z,28.19
2022-08-06T07:09:15.093Z,28.30
2022-08-06T07:12:03.160Z,28.43
2022-08-06T07:14:34.491Z,28.49
2022-08-06T07:17:45.014Z,28.52
2022-08-06T07:19:55.498Z,28.54
2022-08-06T07:22:24.861Z,28.62
2022-08-06T07:25:00.953Z,28.71
2022-08-06T07:27:43.080Z,28.71
2022-08-06T07:30:20.823Z,28.80
2022-08-06T07:32:53.464Z,28.91
2022-08-06T07:35:21.655Z,28.97
2022-08-06T07:38:02.978Z,29.09
2022-08-06T07:40:36.598Z,29.19
2022-08-06T07:43:21.633Z,29.30
2022-08-06T07:45:55.383Z,29.37
2022-08-06T07:48:29.316Z,29.56
2022-08-06T07:51:04.722Z,29.55
2022-08-06T07:53:52.466Z,29.69
2022-08-06T07:56:23.471Z,29.71
2022-08-06T07:58:56.329Z,29.81
2022-08-06T08:01:28.587Z,29.79
2022-08-06T08:04:34.257Z,29.92
2022-08-06T08:07:07.521Z,30.12
2022-08-06T08:10:02.705Z,30.20
2022-08-06T08:12:35.651Z,30.19
2022-08-06T08:15:19.057Z,30.24
2022-08-06T08:17:57.057Z,30.31
2022-08-06T08:20:34.138Z,30.36
2022-08-06T08:23:05.893Z,30.42
2022-08-06T08:25:40.485Z,30.49
2022-08-06T08:28:15.055Z,30.43
2022-08-06T08:30:49.871Z,30.32
2022-08-06T08:33:19.554Z,30.26
2022-08-06T08:35:48.946Z,30.23
2022-08-06T08:38:33.089Z,30.17
2022-08-06T08:41:13.726Z,30.20
2022-08-06T08:44:01.098Z,30.30
2022-08-06T08:46:37.650Z,30.44
2022-08-06T08:49:07.376Z,30.61
2022-08-06T08:51:42.994Z,30.61
2022-08-06T08:54:19.543Z,30.72
2022-08-06T08:57:10.346Z,30.84
2022-08-06T08:59:58.068Z,30.95
2022-08-06T09:02:26.595Z,30.90
2022-08-06T09:04:54.660Z,30.84
2022-08-06T09:07:35.779Z,30.89
2022-08-06T09:10:07.115Z,30.84
2022-08-06T09:12:45.246Z,30.72
2022-08-06T09:15:14.593Z,30.65
2022-08-06T09:18:11.798Z,30.66
2022-08-06T09:20:37.646Z,30.48
2022-08-06T09:23:12.263Z,30.48
2022-08-06T09:25:51.367Z,30.34
2022-08-06T09:28:36.095Z,30.21
2022-08-06T09:31:22.217Z,30.21
2022-08-06T09:34:29.053Z,30.16
2022-08-06T09:36:57.054Z,30.20
2022-08-06T09:40:05.833Z,30.25
2022-08-06T09:42:44.247Z,30.17
2022-08-06T09:45:16.079Z,30.15
2022-08-06T09:47:58.567Z,30.13
2022-08-06T09:50:44.094Z,30.20
2022-08-06T09:53:15.152Z,30.09
2022-08-06T09:55:46.200Z,30.14
2022-08-06T09:58:13.741Z,30.28
2022-08-06T10:00:41.440Z,30.35
2022-08-06T10:04:03.744Z,30.42
2022-08-06T10:06:10.774Z,30.52
2022-08-06T10:08:39.870Z,30.45
2022-08-06T10:11:09.144Z,30.47
2022-08-06T10:13:44.447Z,30.58
2022-08-06T10:16:31.183Z,30.67
2022-08-06T10:19:19.099Z,30.73
2022-08-06T10:21:47.429Z,30.53
2022-08-06T10:24:26.006Z,30.54
2022-08-06T10:27:14.250Z,30.49
2022-08-06T10:29:50.925Z,30.49
2022-08-06T10:32:30.774Z,30.63
2022-08-06T10:35:04.484Z,30.74
2022-08-06T10:37:49.107Z,30.68
2022-08-06T10:40:30.092Z,30.68
2022-08-06T10:43:08.418Z,30.76
2022-08-06T10:45:49.742Z,30.77
2022-08-06T10:49:00.985Z,30.83
2022-08-06T10:51:09.072Z,30.93
2022-08-06T10:54:01.329Z,30.96
2022-08-06T10:56:31.632Z,31.11
2022-08-06T10:59:07.434Z,31.03
2022-08-06T11:01:54.884Z,31.11
2022-08-06T11:04:32.101Z,31.10
2022-08-06T11:08:09.608Z,31.15
2022-08-06T11:11:04.414Z,31.25
2022-08-06T11:13:53.588Z,31.11
2022-08-06T11:16:27.759Z,31.17
2022-08-06T11:19:07.308Z,31.21
2022-08-06T11:22:01.830Z,31.10
2022-08-06T11:24:33.216Z,31.14
2022-08-06T11:27:11.118Z,31.09
2022-08-06T11:30:12.753Z,31.24
2022-08-06T11:32:53.848Z,31.29
2022-08-06T11:35:47.597Z,31.25
2022-08-06T11:38:48.547Z,31.27
2022-08-06T11:41:55.017Z,31.21
2022-08-06T11:44:21.643Z,31.25
2022-08-06T11:47:22.714Z,31.41
2022-08-06T11:49:52.108Z,31.32
2022-08-06T11:52:40.789Z,31.39
2022-08-06T11:55:23.527Z,31.33
2022-08-06T11:58:30.411Z,31.41
2022-08-06T12:01:03.490Z,31.45
2022-08-06T12:03:52.536Z,31.49
2022-08-06T12:06:29.032Z,31.42
2022-08-06T12:09:22.921Z,31.39
2022-08-06T12:12:26.705Z,31.33
2022-08-06T12:14:56.579Z,31.33
2022-08-06T12:17:45.026Z,31.46
2022-08-06T12:20:23.797Z,31.60
2022-08-06T12:23:04.380Z,31.73
2022-08-06T12:25:34.133Z,31.76
2022-08-06T12:28:04.814Z,31.67
2022-08-06T12:30:52.452Z,31.69
2022-08-06T12:33:24.791Z,31.73
2022-08-06T12:36:00.695Z,31.75
2022-08-06T12:38:34.066Z,31.85
2022-08-06T12:41:11.530Z,31.98
2022-08-06T12:43:57.665Z,32.07
2022-08-06T12:46:29.547Z,32.06
2022-08-06T12:49:01.293Z,32.16
2022-08-06T12:51:29.583Z,32.13
2022-08-06T12:54:00.123Z,32.13
2022-08-06T12:56:32.769Z,32.21
2022-08-06T12:59:06.058Z,32.18
2022-08-06T13:02:11.443Z,32.26
2022-08-06T13:04:32.868Z,32.25
2022-08-06T13:07:03.216Z,32.34
2022-08-06T13:09:39.317Z,32.27
2022-08-06T13:12:29.319Z,32.33
2022-08-06T13:15:10.094Z,32.47
2022-08-06T13:18:33.751Z,32.53
2022-08-06T13:21:06.368Z,32.58
2022-08-06T13:23:46.246Z,32.61
2022-08-06T13:26:26.230Z,32.60
2022-08-06T13:30:34.618Z,32.55
2022-08-06T13:32:27.534Z,32.58
2022-08-06T13:35:01.064Z,32.59
2022-08-06T13:37:57.945Z,32.64
2022-08-06T13:40:41.722Z,32.61
2022-08-06T13:43:40.182Z,32.61
2022-08-06T13:46:15.369Z,32.62
2022-08-06T13:48:52.524Z,32.59
2022-08-06T13:51:27.795Z,32.61
2022-08-06T13:53:58.722Z,32.65
2022-08-06T13:56:29.117Z,32.65
2022-08-06T13:59:00.552Z,32.61
2022-08-06T14:01:44.584Z,32.71
2022-08-06T14:04:13.689Z,32.86
2022-08-06T14:06:44.527Z,32.78
2022-08-06T14:09:19.226Z,32.77
2022-08-06T14:11:53.652Z,32.84
2022-08-06T14:14:24.654Z,32.80
2022-08-06T14:16:54.580Z,32.80
2022-08-06T14:20:09.807Z,32.75
2022-08-06T14:22:10.366Z,32.82
2022-08-06T14:24:39.596Z,32.83
2022-08-06T14:27:15.986Z,32.82
2022-08-06T14:30:28.989Z,32.81
2022-08-06T14:32:32.510Z,32.82
2022-08-06T14:35:04.520Z,32.83
2022-08-06T14:37:50.512Z,32.77
2022-08-06T14:40:42.959Z,32.75
2022-08-06T14:43:54.831Z,32.72
2022-08-06T14:46:30.602Z,32.62
2022-08-06T14:49:00.267Z,32.53
2022-08-06T14:51:37.610Z,32.48
2022-08-06T14:54:19.035Z,32.48
2022-08-06T14:56:55.299Z,32.33
2022-08-06T14:59:23.544Z,32.26
2022-08-06T15:01:52.291Z,32.10
2022-08-06T15:04:23.789Z,32.23
2022-08-06T15:06:59.369Z,32.20
2022-08-06T15:10:05.905Z,32.17
2022-08-06T15:12:21.736Z,32.10
2022-08-06T15:15:06.427Z,32.08
2022-08-06T15:18:03.845Z,32.01
2022-08-06T15:20:28.041Z,31.99
2022-08-06T15:22:56.028Z,31.94
2022-08-06T15:26:00.284Z,31.84
2022-08-06T15:28:12.023Z,31.85
2022-08-06T15:30:39.790Z,31.81
2022-08-06T15:33:08.043Z,31.71
2022-08-06T15:35:53.045Z,31.72
2022-08-06T15:38:27.127Z,31.63
2022-08-06T15:40:55.581Z,31.57
2022-08-06T15:43:25.521Z,31.55
2022-08-06T15:45:58.402Z,31.44
2022-08-06T15:48:28.616Z,31.47
2022-08-06T15:51:28.269Z,31.44
2022-08-06T15:53:54.747Z,31.39
2022-08-06T15:56:33.808Z,31.37
2022-08-06T15:59:06.200Z,31.32
2022-08-06T16:02:01.257Z,31.24
2022-08-06T16:04:36.049Z,31.21
2022-08-06T16:07:06.133Z,31.18
2022-08-06T16:09:40.421Z,31.12
2022-08-06T16:12:22.812Z,31.12
2022-08-06T16:14:54.403Z,31.11
2022-08-06T16:17:33.496Z,31.22
2022-08-06T16:20:11.967Z,31.08
2022-08-06T16:22:48.789Z,31.06
2022-08-06T16:25:17.580Z,31.05
2022-08-06T16:27:46.170Z,30.95
2022-08-06T16:30:15.316Z,30.96
2022-08-06T16:32:45.101Z,30.94
2022-08-06T16:35:15.307Z,30.88
2022-08-06T16:37:51.817Z,30.82
2022-08-06T16:40:22.066Z,30.77
2022-08-06T16:42:53.870Z,30.79
2022-08-06T16:45:23.123Z,30.75
2022-08-06T16:48:20.357Z,30.66
2022-08-06T16:50:42.873Z,30.60
2022-08-06T16:54:12.713Z,30.60
2022-08-06T16:55:59.139Z,30.54
2022-08-06T16:58:35.131Z,30.43
2022-08-06T17:02:20.955Z,30.33
2022-08-06T17:04:03.169Z,30.23
2022-08-06T17:09:21.182Z,30.05
2022-08-06T17:11:57.946Z,29.96
2022-08-06T17:14:28.161Z,29.99
2022-08-06T17:16:56.854Z,29.92
2022-08-06T17:19:24.232Z,29.90
2022-08-06T17:21:59.503Z,29.82
2022-08-06T17:24:36.526Z,29.79
2022-08-06T17:29:56.381Z,29.72
2022-08-06T17:32:32.717Z,29.74
2022-08-06T17:35:09.553Z,29.59
2022-08-06T17:37:49.306Z,29.75
2022-08-06T17:40:31.656Z,29.68
2022-08-06T17:43:04.987Z,29.68
2022-08-06T17:45:46.480Z,29.64
2022-08-06T17:48:24.598Z,29.60
2022-08-06T17:50:53.037Z,29.48
2022-08-06T17:53:21.764Z,29.48
2022-08-06T17:55:59.786Z,29.41
2022-08-06T17:58:37.605Z,29.38
2022-08-06T18:01:44.930Z,29.36
2022-08-06T18:04:22.090Z,29.32
2022-08-06T18:06:58.492Z,29.20
2022-08-06T18:10:11.577Z,29.20
2022-08-06T18:12:18.494Z,29.16
2022-08-06T18:14:52.100Z,29.05
2022-08-06T18:17:20.241Z,29.03
2022-08-06T18:19:47.587Z,28.96
2022-08-06T18:22:22.898Z,28.96
2022-08-06T18:24:56.047Z,28.91
2022-08-06T18:27:54.024Z,28.80
2022-08-06T18:30:30.079Z,28.83
2022-08-06T18:33:08.480Z,28.82
2022-08-06T18:35:55.757Z,28.75
2022-08-06T18:38:31.872Z,28.71
2022-08-06T18:41:06.239Z,28.57
2022-08-06T18:43:54.107Z,28.62
2022-08-06T18:47:02.213Z,28.56
2022-08-06T18:49:20.801Z,28.41
2022-08-06T18:52:00.960Z,28.42
2022-08-06T18:54:30.170Z,28.30
2022-08-06T18:56:58.312Z,28.34
2022-08-06T18:59:28.992Z,28.30
2022-08-06T19:01:59.032Z,28.24
2022-08-06T19:04:29.269Z,28.22
2022-08-06T19:06:59.744Z,28.14
2022-08-06T19:09:33.664Z,28.14
2022-08-06T19:12:12.628Z,28.24
2022-08-06T19:14:48.727Z,28.08
2022-08-06T19:17:47.864Z,28.07
2022-08-06T19:20:20.646Z,27.94
2022-08-06T19:22:53.390Z,27.96
2022-08-06T19:25:28.634Z,27.92
2022-08-06T19:28:36.357Z,27.85
2022-08-06T19:30:57.966Z,27.78
2022-08-06T19:33:26.740Z,27.77
2022-08-06T19:36:11.292Z,27.72
2022-08-06T19:38:41.879Z,27.70
2022-08-06T19:41:09.873Z,27.70
2022-08-06T19:44:28.099Z,27.76
2022-08-06T19:46:29.869Z,27.88
2022-08-06T19:49:06.263Z,28.02
2022-08-06T19:52:03.894Z,28.10
2022-08-06T19:54:26.338Z,28.07
2022-08-06T19:57:08.649Z,28.20
2022-08-06T20:00:52.601Z,28.24
2022-08-06T20:02:26.603Z,28.10
2022-08-06T20:05:00.009Z,27.79
2022-08-06T20:07:27.958Z,27.55
2022-08-06T20:10:01.548Z,27.31
2022-08-06T20:12:38.380Z,27.26
2022-08-06T20:15:07.641Z,27.20
2022-08-06T20:17:49.522Z,27.11
2022-08-06T20:20:28.813Z,27.14
2022-08-06T20:23:11.402Z,27.18
2022-08-06T20:26:09.063Z,27.21
2022-08-06T20:29:08.730Z,27.23
2022-08-06T20:34:12.333Z,27.13
2022-08-06T20:36:39.783Z,27.11
2022-08-06T20:39:07.159Z,27.04
2022-08-06T20:41:57.007Z,26.95
2022-08-06T20:44:21.989Z,26.87
2022-08-06T20:47:46.481Z,26.78
2022-08-06T20:50:04.201Z,26.69
2022-08-06T20:52:29.808Z,26.58
2022-08-06T20:54:59.101Z,26.56
2022-08-06T20:57:37.582Z,26.57
2022-08-06T21:00:22.325Z,26.45
2022-08-06T21:03:28.140Z,26.33
2022-08-06T21:05:50.846Z,26.27
2022-08-06T21:08:26.739Z,26.17
2022-08-06T21:11:00.488Z,26.09
2022-08-06T21:13:35.957Z,26.03
2022-08-06T21:16:28.945Z,25.92
2022-08-06T21:19:00.506Z,25.74
2022-08-06T21:21:31.902Z,25.87
2022-08-06T21:24:01.105Z,25.75
2022-08-06T21:26:35.651Z,25.74
2022-08-06T21:29:41.968Z,25.66
2022-08-06T21:31:57.542Z,25.58
2022-08-06T21:34:29.343Z,25.54
2022-08-06T21:36:59.045Z,25.58
2022-08-06T21:39:52.249Z,25.57
2022-08-06T21:42:15.599Z,25.42
2022-08-06T21:44:42.828Z,25.35
2022-08-06T21:47:16.435Z,25.40
2022-08-06T21:50:05.396Z,25.44
2022-08-06T21:52:35.686Z,25.43
2022-08-06T21:56:35.623Z,25.40
2022-08-06T21:57:54.861Z,25.31
2022-08-06T22:00:34.649Z,25.34
2022-08-06T22:03:07.102Z,25.32
2022-08-06T22:06:22.340Z,25.20
2022-08-06T22:08:51.931Z,25.20
2022-08-06T22:12:38.296Z,25.25
2022-08-06T22:14:12.061Z,25.21
2022-08-06T22:16:43.828Z,25.20
2022-08-06T22:19:17.529Z,25.22
2022-08-06T22:21:50.740Z,25.08
2022-08-06T22:24:23.230Z,25.17
2022-08-06T22:26:56.389Z,25.13
2022-08-06T22:29:48.205Z,25.08
2022-08-06T22:32:15.648Z,25.00
2022-08-06T22:34:42.980Z,25.04
2022-08-06T22:37:14.837Z,24.98
2022-08-06T22:39:46.806Z,25.05
2022-08-06T22:42:20.384Z,25.04
2022-08-06T22:45:48.012Z,25.04
2022-08-06T22:47:39.902Z,24.97
2022-08-06T22:50:11.295Z,24.95
2022-08-06T22:53:02.331Z,24.92
2022-08-06T22:55:28.550Z,24.95
2022-08-06T22:58:04.237Z,25.01
2022-08-06T23:00:46.405Z,24.98
2022-08-06T23:03:15.880Z,24.90
2022-08-06T23:05:44.616Z,24.89
2022-08-06T23:08:17.513Z,24.84
2022-08-06T23:10:49.137Z,24.76
2022-08-06T23:13:25.367Z,24.80
2022-08-06T23:15:58.593Z,24.71
2022-08-06T23:18:30.562Z,24.73
2022-08-06T23:21:20.251Z,24.66
2022-08-06T23:23:54.533Z,24.62
2022-08-06T23:26:31.431Z,24.66
2022-08-06T23:29:08.350Z,24.56
2022-08-06T23:31:39.004Z,24.51
2022-08-06T23:34:33.447Z,24.50
2022-08-06T23:36:59.024Z,24.49
2022-08-06T23:39:37.043Z,24.39
2022-08-06T23:42:08.645Z,24.34
2022-08-06T23:44:51.888Z,24.24
2022-08-06T23:47:52.140Z,24.28
2022-08-06T23:50:11.257Z,24.13
2022-08-06T23:52:42.019Z,24.13
2022-08-06T23:55:25.664Z,24.10
2022-08-06T23:57:56.902Z,24.09
